Time;durP1;ratioP1;P1;durP2;ratioP2;P2;SDS_P1;SDS_P2;PMS_P1;PMS_P2;Temp;Humidity;BMP_temperature;BMP_pressure;BME280_temperature;BME280_humidity;BME280_pressure;Samples;Min_cycle;Max_cycle;Signal;HPM_P1;HPM_P2
2023/01/20 00:05:54;;;;;;;31;17.5;;;;;;;1.2;89.7;98130;;;;
2023/01/20 00:15:55;;;;;;;31;17.5;;;;;;;1.1;89.5;98110;;;;
2023/01/20 00:26:55;;;;;;;31;17.5;;;;;;;0.9;89.4;98130;;;;
2023/01/20 00:37:55;;;;;;;23.8;14.4;;;;;;;0.9;89.6;98140;;;;
2023/01/20 00:47:54;;;;;;;23.8;14.4;;;;;;;0.9;89.3;98140;;;;
2023/01/20 00:57:55;;;;;;;23.8;14.4;;;;;;;0.9;89.3;98140;;;;
2023/01/20 01:08:55;;;;;;;25.9;13.1;;;;;;;1;89.4;98160;;;;
2023/01/20 01:18:55;;;;;;;25.9;13.1;;;;;;;1.1;89.3;98150;;;;
2023/01/20 01:29:55;;;;;;;25.9;13.1;;;;;;;1.1;89.1;98160;;;;
2023/01/20 01:39:55;;;;;;;27.3;14.2;;;;;;;1.1;89.1;98150;;;;
2023/01/20 01:49:55;;;;;;;27.3;14.2;;;;;;;1.1;89.1;98160;;;;
2023/01/20 01:59:55;;;;;;;27.3;14.2;;;;;;;1.1;89;98160;;;;
2023/01/20 02:10:55;;;;;;;31;16.5;;;;;;;1.2;89.3;98190;;;;
2023/01/20 02:20:55;;;;;;;31;16.5;;;;;;;1.3;89.4;98180;;;;
2023/01/20 02:31:55;;;;;;;31;16.5;;;;;;;1.5;89.2;98170;;;;
2023/01/20 02:41:55;;;;;;;29.4;15.9;;;;;;;1.4;88.6;98190;;;;
2023/01/20 02:51:55;;;;;;;29.4;15.9;;;;;;;1.5;88.7;98200;;;;
2023/01/20 03:02:55;;;;;;;29.4;15.9;;;;;;;1.5;88.6;98190;;;;
2023/01/20 03:12:55;;;;;;;37.1;18.3;;;;;;;1.5;88.3;98200;;;;
2023/01/20 03:23:55;;;;;;;37.1;18.3;;;;;;;1.6;88.3;98200;;;;
2023/01/20 03:33:55;;;;;;;36.9;19.8;;;;;;;1.6;88;98210;;;;
2023/01/20 03:44:55;;;;;;;36.9;19.8;;;;;;;1.5;87.9;98220;;;;
2023/01/20 03:54:55;;;;;;;36.9;19.8;;;;;;;1.5;87.7;98210;;;;
2023/01/20 04:04:55;;;;;;;40.4;19.2;;;;;;;1.4;88;98210;;;;
2023/01/20 04:15:55;;;;;;;40.4;19.2;;;;;;;1.4;88.1;98230;;;;
2023/01/20 04:25:55;;;;;;;40.4;19.2;;;;;;;1.3;88.1;98240;;;;
2023/01/20 04:36:57;;;;;;;36.8;20.4;;;;;;;1.3;88.2;98260;;;;
2023/01/20 04:47:55;;;;;;;36.8;20.4;;;;;;;1.3;88.5;98270;;;;
2023/01/20 04:58:55;;;;;;;36.8;20.4;;;;;;;1.4;88.4;98290;;;;
2023/01/20 05:08:55;;;;;;;32.6;18.9;;;;;;;1.4;88.1;98300;;;;
2023/01/20 05:19:55;;;;;;;32.6;18.9;;;;;;;1.5;88.2;98300;;;;
2023/01/20 05:29:55;;;;;;;32.6;18.9;;;;;;;1.4;87.7;98310;;;;
2023/01/20 05:40:55;;;;;;;31.9;20.1;;;;;;;1.3;87.8;98320;;;;
2023/01/20 05:50:55;;;;;;;31.9;20.1;;;;;;;1.2;88;98330;;;;
2023/01/20 06:01:55;;;;;;;31.9;20.1;;;;;;;1.2;88.3;98340;;;;
2023/01/20 06:11:55;;;;;;;35.9;21.5;;;;;;;1.2;88.4;98340;;;;
2023/01/20 06:22:55;;;;;;;35.9;21.5;;;;;;;1.2;88.3;98360;;;;
2023/01/20 06:32:56;;;;;;;28.1;17.5;;;;;;;1.2;88.1;98360;;;;
2023/01/20 06:43:55;;;;;;;28.1;17.5;;;;;;;1.2;88.1;98370;;;;
2023/01/20 06:53:55;;;;;;;28.1;17.5;;;;;;;1.1;87.8;98370;;;;
2023/01/20 07:03:55;;;;;;;31.1;18.5;;;;;;;1.2;87.7;98380;;;;
2023/01/20 07:13:55;;;;;;;31.1;18.5;;;;;;;1.3;87.5;98370;;;;
2023/01/20 07:24:55;;;;;;;31.1;18.5;;;;;;;1.3;86.9;98380;;;;
2023/01/20 07:35:55;;;;;;;30.3;18;;;;;;;1.3;86.8;98390;;;;
2023/01/20 07:46:55;;;;;;;30.3;18;;;;;;;1.2;86.6;98390;;;;
2023/01/20 07:56:56;;;;;;;30.3;18;;;;;;;1.5;86.8;98400;;;;
2023/01/20 08:06:55;;;;;;;38.1;21.8;;;;;;;1.4;86.4;98420;;;;
2023/01/20 08:17:55;;;;;;;38.1;21.8;;;;;;;1.4;86.4;98430;;;;
2023/01/20 08:28:55;;;;;;;38.1;21.8;;;;;;;1.6;86;98440;;;;
2023/01/20 08:39:55;;;;;;;41.7;23;;;;;;;1.7;85.8;98430;;;;
2023/01/20 08:50:55;;;;;;;41.7;23;;;;;;;1.8;85.6;98450;;;;
2023/01/20 09:01:55;;;;;;;41.7;23;;;;;;;1.8;84.8;98450;;;;
2023/01/20 09:11:55;;;;;;;38.6;22.3;;;;;;;1.9;84.8;98450;;;;
2023/01/20 09:21:55;;;;;;;38.6;22.3;;;;;;;2;84.9;98460;;;;
2023/01/20 09:31:56;;;;;;;38.6;22.3;;;;;;;2;84.9;98460;;;;
2023/01/20 09:43:52;;;;;;;37;21.5;;;;;;;2.2;84.4;98450;;;;
2023/01/20 09:53:02;;;;;;;37;21.5;;;;;;;2.4;84.1;98450;;;;
2023/01/20 10:02:55;;;;;;;43.6;27.6;;;;;;;2.2;83.7;98450;;;;
2023/01/20 10:13:55;;;;;;;43.6;27.6;;;;;;;2.1;83.7;98440;;;;
2023/01/20 10:24:55;;;;;;;43.6;27.6;;;;;;;2;84.1;98450;;;;
2023/01/20 10:34:55;;;;;;;45.8;24;;;;;;;2.1;84;98440;;;;
2023/01/20 10:44:55;;;;;;;45.8;24;;;;;;;1.9;83.7;98450;;;;
2023/01/20 10:55:55;;;;;;;45.8;24;;;;;;;1.8;84.5;98440;;;;
2023/01/20 11:06:55;;;;;;;41.8;25.6;;;;;;;1.7;84.6;98430;;;;
2023/01/20 11:17:56;;;;;;;41.8;25.6;;;;;;;1.9;84.7;98400;;;;
2023/01/20 11:27:56;;;;;;;41.8;25.6;;;;;;;2;84.8;98410;;;;
2023/01/20 11:38:55;;;;;;;42.9;23.9;;;;;;;2.1;84.3;98400;;;;
2023/01/20 11:48:55;;;;;;;42.9;23.9;;;;;;;2;84.5;98380;;;;
2023/01/20 11:59:55;;;;;;;42.9;23.9;;;;;;;2.1;84.5;98370;;;;
2023/01/20 12:10:55;;;;;;;46.1;27.4;;;;;;;1.9;85;98370;;;;
2023/01/20 12:20:55;;;;;;;46.1;27.4;;;;;;;1.8;86.4;98380;;;;
2023/01/20 12:31:55;;;;;;;33.9;17.9;;;;;;;1.8;86.7;98390;;;;
2023/01/20 12:42:55;;;;;;;33.9;17.9;;;;;;;1.7;87.4;98400;;;;
2023/01/20 12:52:55;;;;;;;33.9;17.9;;;;;;;1.6;87.5;98390;;;;
2023/01/20 13:02:56;;;;;;;74.8;40.7;;;;;;;1.7;87.7;98420;;;;
2023/01/20 13:13:55;;;;;;;74.8;40.7;;;;;;;1.5;88.2;98430;;;;
2023/01/20 13:24:55;;;;;;;74.8;40.7;;;;;;;1.4;88.5;98430;;;;
2023/01/20 13:35:55;;;;;;;59.2;32.1;;;;;;;1.4;88.9;98430;;;;
2023/01/20 13:45:55;;;;;;;59.2;32.1;;;;;;;1.3;89.1;98440;;;;
2023/01/20 13:55:55;;;;;;;59.2;32.1;;;;;;;1.3;89.2;98450;;;;
2023/01/20 14:06:55;;;;;;;44.1;23.8;;;;;;;1.3;89.4;98440;;;;
2023/01/20 14:17:55;;;;;;;44.1;23.8;;;;;;;1.2;89.7;98440;;;;
2023/01/20 14:28:55;;;;;;;44.1;23.8;;;;;;;1.1;89.9;98450;;;;
2023/01/20 14:39:57;;;;;;;32.3;18.7;;;;;;;1.1;90;98450;;;;
2023/01/20 14:49:55;;;;;;;32.3;18.7;;;;;;;1.2;90.1;98460;;;;
2023/01/20 14:59:55;;;;;;;32.3;18.7;;;;;;;1.2;90.1;98460;;;;
2023/01/20 15:10:55;;;;;;;48.1;25.9;;;;;;;1.3;90;98460;;;;
2023/01/20 15:21:55;;;;;;;48.1;25.9;;;;;;;1.2;90.2;98460;;;;
2023/01/20 15:31:55;;;;;;;38;20.7;;;;;;;1.2;90.4;98460;;;;
2023/01/20 15:41:55;;;;;;;38;20.7;;;;;;;1.1;90.5;98450;;;;
2023/01/20 15:52:55;;;;;;;38;20.7;;;;;;;1.1;90.7;98450;;;;
2023/01/20 16:02:55;;;;;;;40.2;21.9;;;;;;;1.2;90.6;98450;;;;
2023/01/20 16:13:56;;;;;;;40.2;21.9;;;;;;;1;91;98450;;;;
2023/01/20 16:24:55;;;;;;;40.2;21.9;;;;;;;1.1;91.4;98450;;;;
2023/01/20 16:35:55;;;;;;;26.1;13.9;;;;;;;0.9;91.4;98460;;;;
2023/01/20 16:46:56;;;;;;;26.1;13.9;;;;;;;0.7;91.5;98470;;;;
2023/01/20 16:56:55;;;;;;;26.1;13.9;;;;;;;0.8;91.7;98480;;;;
2023/01/20 17:06:55;;;;;;;32.3;18.8;;;;;;;0.9;91.8;98480;;;;
2023/01/20 17:17:56;;;;;;;32.3;18.8;;;;;;;0.9;91.7;98470;;;;
2023/01/20 17:27:55;;;;;;;32.3;18.8;;;;;;;0.8;91.7;98480;;;;
2023/01/20 17:38:55;;;;;;;19.9;11.1;;;;;;;0.9;91.8;98470;;;;
2023/01/20 17:48:55;;;;;;;19.9;11.1;;;;;;;1;91.9;98480;;;;
2023/01/20 17:59:55;;;;;;;19.9;11.1;;;;;;;0.9;91.7;98470;;;;
2023/01/20 18:09:55;;;;;;;23.1;12.6;;;;;;;0.9;91.9;98470;;;;
2023/01/20 18:20:57;;;;;;;23.1;12.6;;;;;;;1;91.9;98460;;;;
2023/01/20 18:31:56;;;;;;;44.9;26.1;;;;;;;1;91.8;98470;;;;
2023/01/20 18:42:55;;;;;;;44.9;26.1;;;;;;;1;91.9;98470;;;;
2023/01/20 18:53:55;;;;;;;44.9;26.1;;;;;;;0.9;91.6;98470;;;;
2023/01/20 19:03:55;;;;;;;34.5;22.2;;;;;;;0.8;91.9;98460;;;;
2023/01/20 19:13:55;;;;;;;34.5;22.2;;;;;;;0.7;92;98470;;;;
2023/01/20 19:24:55;;;;;;;34.5;22.2;;;;;;;0.7;92.1;98470;;;;
2023/01/20 19:35:57;;;;;;;27;14.4;;;;;;;0.5;92;98480;;;;
2023/01/20 19:45:55;;;;;;;27;14.4;;;;;;;0.6;92.2;98470;;;;
2023/01/20 19:55:55;;;;;;;27;14.4;;;;;;;0.6;92.1;98450;;;;
2023/01/20 20:05:56;;;;;;;19.6;10.5;;;;;;;0.7;92.1;98460;;;;
2023/01/20 20:16:55;;;;;;;19.6;10.5;;;;;;;0.7;92.5;98440;;;;
2023/01/20 20:27:56;;;;;;;19.6;10.5;;;;;;;0.7;92.7;98420;;;;
2023/01/20 20:38:57;;;;;;;13.2;7.8;;;;;;;0.7;92.9;98430;;;;
2023/01/20 20:48:55;;;;;;;13.2;7.8;;;;;;;0.8;93;98440;;;;
2023/01/20 20:59:56;;;;;;;13.2;7.8;;;;;;;0.9;93.1;98410;;;;
2023/01/20 21:09:56;;;;;;;15.3;9.1;;;;;;;0.9;93.1;98400;;;;
2023/01/20 21:19:55;;;;;;;15.3;9.1;;;;;;;0.8;92.5;98400;;;;
2023/01/20 21:29:55;;;;;;;15.3;9.1;;;;;;;0.7;92.6;98400;;;;
2023/01/20 21:40:58;;;;;;;14.3;7.2;;;;;;;0.8;92.7;98410;;;;
2023/01/20 22:00:55;;;;;;;36.7;21.2;;;;;;;0.8;92.7;98400;;;;
2023/01/20 22:11:55;;;;;;;36.7;21.2;;;;;;;0.8;92.8;98390;;;;
2023/01/20 22:22:55;;;;;;;36.7;21.2;;;;;;;0.8;92.6;98390;;;;
2023/01/20 22:32:55;;;;;;;48.6;27.1;;;;;;;0.8;92.7;98390;;;;
2023/01/20 22:42:55;;;;;;;48.6;27.1;;;;;;;0.8;92.7;98380;;;;
2023/01/20 22:52:55;;;;;;;48.6;27.1;;;;;;;0.9;93;98380;;;;
2023/01/20 23:02:55;;;;;;;26.8;17.4;;;;;;;0.9;93;98390;;;;
2023/01/20 23:12:55;;;;;;;26.8;17.4;;;;;;;1;93.1;98390;;;;
2023/01/20 23:22:55;;;;;;;26.8;17.4;;;;;;;1;93;98400;;;;
2023/01/20 23:33:56;;;;;;;15.5;8.7;;;;;;;1.2;93.1;98390;;;;
2023/01/20 23:43:56;;;;;;;15.5;8.7;;;;;;;1.3;93.1;98390;;;;
2023/01/20 23:54:57;;;;;;;15.5;8.7;;;;;;;1.4;93.1;98390;;;;
